createdAt,value
2022-08-18T00:01:16.484Z,1.80
2022-08-18T00:06:19.866Z,1.50
2022-08-18T00:11:21.921Z,2.28
2022-08-18T00:16:23.883Z,1.65
2022-08-18T00:21:26.149Z,1.90
2022-08-18T00:26:30.425Z,2.00
2022-08-18T00:31:34.455Z,1.80
2022-08-18T00:36:36.404Z,2.08
2022-08-18T00:41:38.189Z,2.08
2022-08-18T00:46:39.955Z,2.15
2022-08-18T00:51:48.347Z,2.10
2022-08-18T00:56:55.582Z,1.92
2022-08-18T01:07:22.229Z,1.87
2022-08-18T01:12:39.446Z,1.95
2022-08-18T01:18:05.602Z,1.85
2022-08-18T01:23:15.497Z,1.73
2022-08-18T01:28:20.987Z,1.92
2022-08-18T01:33:22.766Z,2.25
2022-08-18T01:38:32.518Z,2.20
2022-08-18T01:43:36.239Z,2.50
2022-08-18T01:48:39.689Z,2.30
2022-08-18T01:53:41.965Z,2.13
2022-08-18T01:58:44.706Z,2.00
2022-08-18T02:03:53.005Z,2.65
2022-08-18T02:08:54.756Z,1.70
2022-08-18T02:13:56.655Z,2.20
2022-08-18T02:18:58.513Z,1.98
2022-08-18T02:24:00.301Z,1.45
2022-08-18T02:29:02.085Z,2.05
2022-08-18T02:34:03.923Z,2.33
2022-08-18T02:39:05.708Z,2.10
2022-08-18T02:44:08.965Z,2.08
2022-08-18T02:49:10.920Z,2.00
2022-08-18T02:54:12.826Z,2.13
2022-08-18T02:59:19.553Z,1.77
2022-08-18T03:04:29.575Z,1.92
2022-08-18T03:09:34.621Z,2.10
2022-08-18T03:14:40.030Z,2.05
2022-08-18T03:19:45.246Z,2.28
2022-08-18T03:24:49.813Z,2.17
2022-08-18T03:29:51.924Z,2.22
2022-08-18T03:34:54.263Z,1.90
2022-08-18T03:39:56.228Z,1.58
2022-08-18T03:44:58.270Z,2.00
2022-08-18T03:50:00.149Z,1.63
2022-08-18T03:55:02.849Z,2.00
2022-08-18T04:00:05.648Z,2.30
2022-08-18T04:05:07.842Z,2.25
2022-08-18T04:10:14.000Z,2.63
2022-08-18T04:15:21.489Z,2.42
2022-08-18T04:20:24.462Z,2.00
2022-08-18T04:25:32.173Z,2.15
2022-08-18T04:30:34.905Z,2.13
2022-08-18T04:35:36.762Z,2.40
2022-08-18T04:40:38.638Z,2.22
2022-08-18T04:45:45.078Z,2.47
2022-08-18T04:50:47.135Z,2.80
2022-08-18T04:55:53.945Z,2.25
2022-08-18T05:01:01.879Z,2.40
2022-08-18T05:06:05.636Z,2.63
2022-08-18T05:11:07.599Z,2.67
2022-08-18T05:16:13.968Z,2.63
2022-08-18T05:21:21.855Z,2.42
2022-08-18T05:26:27.974Z,2.63
2022-08-18T05:31:30.733Z,2.50
2022-08-18T05:36:52.087Z,2.78
2022-08-18T05:41:55.898Z,2.40
2022-08-18T05:47:07.928Z,2.90
2022-08-18T05:52:17.419Z,2.60
2022-08-18T05:57:22.644Z,2.15
2022-08-18T06:02:47.502Z,2.72
2022-08-18T06:07:55.869Z,2.10
2022-08-18T06:13:00.707Z,2.38
2022-08-18T06:18:08.566Z,2.45
2022-08-18T06:23:33.110Z,2.10
2022-08-18T06:29:03.320Z,1.88
2022-08-18T06:34:11.251Z,1.65
2022-08-18T06:39:35.304Z,1.85
2022-08-18T06:44:44.519Z,1.92
2022-08-18T06:50:07.601Z,1.60
2022-08-18T06:55:17.174Z,1.88
2022-08-18T07:00:19.129Z,1.95
2022-08-18T07:05:32.279Z,2.05
2022-08-18T07:10:39.639Z,2.20
2022-08-18T07:15:44.247Z,1.95
2022-08-18T07:20:56.177Z,2.58
2022-08-18T07:26:06.982Z,1.67
2022-08-18T07:31:35.403Z,2.35
2022-08-18T07:36:47.629Z,2.50
2022-08-18T07:41:57.698Z,2.15
2022-08-18T07:47:12.323Z,2.03
2022-08-18T07:52:44.402Z,2.22
2022-08-18T07:57:51.576Z,1.98
2022-08-18T08:03:32.222Z,2.47
2022-08-18T08:08:37.928Z,2.33
2022-08-18T08:14:07.548Z,2.00
2022-08-18T08:20:00.428Z,2.28
2022-08-18T08:25:44.656Z,2.15
2022-08-18T08:31:32.960Z,2.33
2022-08-18T08:36:41.837Z,2.22
2022-08-18T08:42:34.592Z,1.77
2022-08-18T08:48:17.929Z,2.40
2022-08-18T08:53:41.956Z,2.28
2022-08-18T08:59:00.598Z,2.80
2022-08-18T09:04:24.440Z,2.45
2022-08-18T09:09:32.262Z,2.88
2022-08-18T09:15:12.568Z,2.30
2022-08-18T09:20:33.210Z,2.45
2022-08-18T09:25:38.066Z,2.55
2022-08-18T09:30:47.688Z,3.00
2022-08-18T09:36:13.040Z,2.58
2022-08-18T09:41:31.997Z,2.53
2022-08-18T09:46:43.708Z,2.80
2022-08-18T09:51:46.027Z,2.40
2022-08-18T10:02:03.726Z,2.13
2022-08-18T10:13:31.570Z,2.63
2022-08-18T10:19:11.314Z,2.67
2022-08-18T10:24:36.870Z,2.30
2022-08-18T10:29:49.625Z,2.88
2022-08-18T10:34:53.840Z,2.47
2022-08-18T10:40:14.070Z,2.28
2022-08-18T10:45:25.661Z,2.42
2022-08-18T10:50:35.407Z,2.78
2022-08-18T10:55:48.706Z,2.50
2022-08-18T11:01:01.468Z,2.45
2022-08-18T11:06:14.581Z,2.72
2022-08-18T11:11:34.643Z,2.55
2022-08-18T11:16:55.811Z,2.83
2022-08-18T11:21:57.893Z,2.75
2022-08-18T11:27:09.733Z,2.67
2022-08-18T11:32:27.758Z,2.92
2022-08-18T11:37:52.254Z,2.90
2022-08-18T11:43:03.935Z,3.28
2022-08-18T11:48:14.692Z,2.92
2022-08-18T11:53:35.561Z,2.60
2022-08-18T11:58:46.021Z,3.20
2022-08-18T12:03:52.725Z,2.75
2022-08-18T12:09:04.742Z,2.67
2022-08-18T12:14:29.854Z,3.40
2022-08-18T12:19:35.283Z,3.42
2022-08-18T12:30:03.214Z,3.85
2022-08-18T12:35:08.258Z,3.30
2022-08-18T12:40:13.749Z,2.88
2022-08-18T12:45:16.890Z,3.40
2022-08-18T12:50:18.793Z,3.67
2022-08-18T12:55:21.880Z,3.15
2022-08-18T13:00:28.081Z,3.15
2022-08-18T13:10:42.970Z,2.95
2022-08-18T13:15:57.949Z,2.95
2022-08-18T13:21:01.765Z,2.85
2022-08-18T13:26:07.114Z,2.55
2022-08-18T13:31:10.938Z,3.53
2022-08-18T13:36:13.822Z,3.67
2022-08-18T13:41:16.911Z,3.60
2022-08-18T13:46:24.296Z,3.17
2022-08-18T13:51:33.557Z,2.97
2022-08-18T13:56:35.616Z,3.42
2022-08-18T14:01:44.884Z,3.42
2022-08-18T14:06:59.149Z,2.88
2022-08-18T14:12:06.801Z,3.20
2022-08-18T14:17:17.656Z,3.28
2022-08-18T14:22:39.974Z,3.40
2022-08-18T14:27:43.633Z,3.80
2022-08-18T14:32:59.972Z,4.20
2022-08-18T14:38:02.997Z,3.78
2022-08-18T14:43:09.369Z,3.33
2022-08-18T14:48:11.734Z,3.47
2022-08-18T14:53:15.249Z,3.22
2022-08-18T14:58:18.717Z,3.50
2022-08-18T15:03:28.350Z,4.05
2022-08-18T15:08:38.542Z,3.67
2022-08-18T15:13:46.605Z,3.80
2022-08-18T15:18:49.161Z,4.05
2022-08-18T15:24:19.437Z,4.63
2022-08-18T15:29:29.023Z,4.20
2022-08-18T15:34:31.451Z,4.07
2022-08-18T15:39:34.670Z,3.78
2022-08-18T15:44:36.641Z,4.13
2022-08-18T15:49:40.164Z,4.57
2022-08-18T15:54:42.367Z,4.38
2022-08-18T15:59:44.552Z,3.58
2022-08-18T16:04:53.396Z,3.97
2022-08-18T16:09:55.609Z,4.70
2022-08-18T16:14:57.590Z,4.68
2022-08-18T16:20:00.208Z,3.75
2022-08-18T16:25:05.549Z,3.30
2022-08-18T16:30:10.913Z,4.00
2022-08-18T16:35:13.957Z,3.83
2022-08-18T16:40:19.737Z,4.20
2022-08-18T16:45:22.204Z,3.70
2022-08-18T16:50:25.583Z,4.22
2022-08-18T16:55:27.685Z,3.83
2022-08-18T17:00:54.925Z,3.97
2022-08-18T17:06:03.928Z,3.88
2022-08-18T17:11:10.063Z,3.90
2022-08-18T17:16:13.499Z,3.27
2022-08-18T17:21:20.206Z,4.32
2022-08-18T17:26:53.446Z,4.50
2022-08-18T17:32:06.181Z,4.55
2022-08-18T17:37:11.748Z,3.83
2022-08-18T17:42:25.847Z,3.58
2022-08-18T17:47:36.270Z,3.50
2022-08-18T17:52:52.687Z,3.65
2022-08-18T17:58:03.861Z,3.85
2022-08-18T18:03:06.479Z,3.92
2022-08-18T18:08:10.188Z,4.28
2022-08-18T18:13:29.074Z,3.78
2022-08-18T18:18:43.371Z,3.80
2022-08-18T18:23:59.504Z,3.78
2022-08-18T18:29:33.411Z,4.20
2022-08-18T18:34:44.227Z,3.97
2022-08-18T18:39:56.779Z,3.92
2022-08-18T18:45:02.190Z,3.72
2022-08-18T18:50:12.845Z,4.03
2022-08-18T18:55:19.382Z,4.38
2022-08-18T19:00:30.349Z,3.90
2022-08-18T19:06:06.041Z,4.25
2022-08-18T19:11:22.674Z,4.28
2022-08-18T19:16:47.997Z,3.67
2022-08-18T19:22:05.511Z,4.50
2022-08-18T19:27:23.005Z,4.20
2022-08-18T19:32:39.415Z,3.67
2022-08-18T19:38:12.503Z,4.18
2022-08-18T19:43:38.815Z,4.47
2022-08-18T19:48:53.107Z,4.90
2022-08-18T19:54:04.681Z,3.80
2022-08-18T19:59:21.618Z,4.82
2022-08-18T20:05:03.711Z,4.68
2022-08-18T20:10:18.117Z,4.60
2022-08-18T20:15:23.901Z,4.88
2022-08-18T20:20:49.401Z,4.78
2022-08-18T20:25:51.466Z,4.18
2022-08-18T20:31:13.208Z,4.70
2022-08-18T20:36:32.455Z,5.00
2022-08-18T20:41:43.498Z,4.82
2022-08-18T20:47:21.794Z,3.97
2022-08-18T20:52:45.117Z,5.28
2022-08-18T20:57:47.266Z,5.38
2022-08-18T21:02:56.018Z,4.70
2022-08-18T21:08:20.076Z,3.85
2022-08-18T21:13:46.244Z,4.20
2022-08-18T21:19:01.033Z,4.75
2022-08-18T21:24:04.544Z,4.38
2022-08-18T21:29:14.105Z,4.90
2022-08-18T21:34:41.721Z,5.43
2022-08-18T21:39:48.079Z,5.13
2022-08-18T21:44:54.594Z,4.68
2022-08-18T21:50:09.709Z,5.37
2022-08-18T21:55:24.227Z,4.70
2022-08-18T22:00:30.010Z,5.88
2022-08-18T22:05:57.953Z,5.68
2022-08-18T22:11:44.164Z,5.13
2022-08-18T22:16:50.246Z,4.95
2022-08-18T22:22:22.497Z,4.97
2022-08-18T22:27:26.738Z,5.70
2022-08-18T22:32:28.584Z,4.60
2022-08-18T22:37:36.863Z,4.82
2022-08-18T22:42:39.653Z,5.18
2022-08-18T22:47:43.223Z,5.05
2022-08-18T22:52:49.663Z,4.78
2022-08-18T22:57:56.112Z,4.10
2022-08-18T23:02:59.206Z,5.05
2022-08-18T23:08:02.773Z,5.30
2022-08-18T23:13:04.755Z,4.75
2022-08-18T23:18:06.591Z,4.85
2022-08-18T23:23:08.603Z,5.00
2022-08-18T23:28:11.585Z,5.00
2022-08-18T23:33:15.081Z,4.55
2022-08-18T23:38:17.956Z,4.75
2022-08-18T23:43:20.401Z,4.97
2022-08-18T23:48:22.313Z,4.82
2022-08-18T23:53:24.111Z,5.97
2022-08-18T23:58:25.934Z,5.30
